createdAt,value
2022-09-12T00:01:52.529Z,7.84
2022-09-12T00:04:19.354Z,7.84
2022-09-12T00:06:45.963Z,7.81
2022-09-12T00:09:14.476Z,7.80
2022-09-12T00:11:44.471Z,7.78
2022-09-12T00:14:14.411Z,7.79
2022-09-12T00:16:42.056Z,7.76
2022-09-12T00:19:09.049Z,7.74
2022-09-12T00:21:37.482Z,7.73
2022-09-12T00:24:04.610Z,7.78
2022-09-12T00:26:31.484Z,7.73
2022-09-12T00:31:40.292Z,7.69
2022-09-12T00:34:06.987Z,7.65
2022-09-12T00:36:33.852Z,7.62
2022-09-12T00:39:00.836Z,7.62
2022-09-12T00:41:30.469Z,7.62
2022-09-12T00:44:00.261Z,7.65
2022-09-12T00:46:50.858Z,7.59
2022-09-12T00:49:35.485Z,7.54
2022-09-12T00:52:12.823Z,7.53
2022-09-12T00:54:45.326Z,7.50
2022-09-12T00:57:15.252Z,7.49
2022-09-12T00:59:50.192Z,7.48
2022-09-12T01:02:17.299Z,7.45
2022-09-12T01:04:44.758Z,7.47
2022-09-12T01:07:12.588Z,7.46
2022-09-12T01:09:40.965Z,7.47
2022-09-12T01:12:08.486Z,7.56
2022-09-12T01:14:35.473Z,7.60
2022-09-12T01:17:02.219Z,7.69
2022-09-12T01:19:47.545Z,7.71
2022-09-12T01:22:50.043Z,7.77
2022-09-12T01:25:36.272Z,7.82
2022-09-12T01:28:18.395Z,7.88
2022-09-12T01:30:48.109Z,7.92
2022-09-12T01:33:52.401Z,7.94
2022-09-12T01:36:53.038Z,7.92
2022-09-12T01:39:28.633Z,7.94
2022-09-12T01:42:26.929Z,7.91
2022-09-12T01:45:03.550Z,7.85
2022-09-12T01:47:56.731Z,7.80
2022-09-12T01:50:30.351Z,7.72
2022-09-12T01:53:04.958Z,7.68
2022-09-12T01:55:47.118Z,7.65
2022-09-12T01:58:20.719Z,7.61
2022-09-12T02:00:55.794Z,7.60
2022-09-12T02:03:29.420Z,7.66
2022-09-12T02:06:06.661Z,7.71
2022-09-12T02:08:39.824Z,7.75
2022-09-12T02:11:11.965Z,7.84
2022-09-12T02:13:43.890Z,7.84
2022-09-12T02:16:16.655Z,7.92
2022-09-12T02:18:53.706Z,7.97
2022-09-12T02:21:22.760Z,8.01
2022-09-12T02:23:57.206Z,8.04
2022-09-12T02:26:31.626Z,8.08
2022-09-12T02:28:58.318Z,8.13
2022-09-12T02:32:55.582Z,8.15
2022-09-12T02:35:36.737Z,8.19
2022-09-12T02:38:09.709Z,8.25
2022-09-12T02:40:36.835Z,8.29
2022-09-12T02:43:06.157Z,8.32
2022-09-12T02:45:34.608Z,8.35
2022-09-12T02:48:18.300Z,8.44
2022-09-12T02:50:45.358Z,8.44
2022-09-12T02:53:12.047Z,8.46
2022-09-12T02:55:40.724Z,8.49
2022-09-12T02:58:12.638Z,8.48
2022-09-12T03:00:57.729Z,8.51
2022-09-12T03:03:53.169Z,8.51
2022-09-12T03:06:58.327Z,8.52
2022-09-12T03:09:50.268Z,8.50
2022-09-12T03:12:19.754Z,8.54
2022-09-12T03:15:08.086Z,8.54
2022-09-12T03:17:40.725Z,8.59
2022-09-12T03:20:15.261Z,8.58
2022-09-12T03:22:53.613Z,8.61
2022-09-12T03:25:30.814Z,8.59
2022-09-12T03:28:10.383Z,8.62
2022-09-12T03:30:45.985Z,8.62
2022-09-12T03:33:14.909Z,8.62
2022-09-12T03:35:42.397Z,8.64
2022-09-12T03:38:09.539Z,8.63
2022-09-12T03:40:37.330Z,8.66
2022-09-12T03:43:05.790Z,8.67
2022-09-12T03:45:32.730Z,8.66
2022-09-12T03:47:59.591Z,8.69
2022-09-12T03:50:26.622Z,8.71
2022-09-12T03:52:53.345Z,8.73
2022-09-12T03:55:20.113Z,8.73
2022-09-12T03:57:46.789Z,8.75
2022-09-12T04:00:19.065Z,8.75
2022-09-12T04:02:46.295Z,8.77
2022-09-12T04:05:12.902Z,8.76
2022-09-12T04:07:39.535Z,8.80
2022-09-12T04:10:06.877Z,8.78
2022-09-12T04:12:33.477Z,8.80
2022-09-12T04:15:00.057Z,8.84
2022-09-12T04:17:26.704Z,8.89
2022-09-12T04:19:53.336Z,8.81
2022-09-12T04:22:21.203Z,8.88
2022-09-12T04:24:47.724Z,8.87
2022-09-12T04:27:14.424Z,8.88
2022-09-12T04:29:40.959Z,8.88
2022-09-12T04:33:40.352Z,8.85
2022-09-12T04:36:12.544Z,8.88
2022-09-12T04:38:39.360Z,8.88
2022-09-12T04:41:21.290Z,8.92
2022-09-12T04:43:52.544Z,8.91
2022-09-12T04:46:20.503Z,8.92
2022-09-12T04:48:48.166Z,8.98
2022-09-12T04:51:23.149Z,9.02
2022-09-12T04:53:53.560Z,8.98
2022-09-12T04:56:21.273Z,9.05
2022-09-12T04:58:49.996Z,9.05
2022-09-12T05:01:19.226Z,9.02
2022-09-12T05:03:47.291Z,9.02
2022-09-12T05:06:20.117Z,9.05
2022-09-12T05:08:47.123Z,9.05
2022-09-12T05:11:18.119Z,9.06
2022-09-12T05:13:47.730Z,9.06
2022-09-12T05:16:15.746Z,9.08
2022-09-12T05:18:44.382Z,9.08
2022-09-12T05:21:13.580Z,9.10
2022-09-12T05:23:40.365Z,9.15
2022-09-12T05:26:08.099Z,9.14
2022-09-12T05:28:37.632Z,9.25
2022-09-12T05:31:10.535Z,9.27
2022-09-12T05:33:39.020Z,9.29
2022-09-12T05:36:07.598Z,9.32
2022-09-12T05:38:38.040Z,9.30
2022-09-12T05:41:16.255Z,9.36
2022-09-12T05:43:46.419Z,9.33
2022-09-12T05:46:15.958Z,9.40
2022-09-12T05:48:44.869Z,9.44
2022-09-12T05:51:20.691Z,9.44
2022-09-12T05:53:51.648Z,9.49
2022-09-12T05:56:24.070Z,9.52
2022-09-12T05:59:00.561Z,9.55
2022-09-12T06:01:28.496Z,9.58
2022-09-12T06:03:57.807Z,9.57
2022-09-12T06:06:25.642Z,9.60
2022-09-12T06:08:55.948Z,9.61
2022-09-12T06:11:26.002Z,9.64
2022-09-12T06:13:53.407Z,9.68
2022-09-12T06:16:26.208Z,9.71
2022-09-12T06:18:55.379Z,9.73
2022-09-12T06:21:23.362Z,9.75
2022-09-12T06:23:54.239Z,9.78
2022-09-12T06:26:23.587Z,9.79
2022-09-12T06:28:50.909Z,9.79
2022-09-12T06:34:33.917Z,9.88
2022-09-12T06:37:00.518Z,9.93
2022-09-12T06:39:27.076Z,9.95
2022-09-12T06:41:54.148Z,9.97
2022-09-12T06:44:22.908Z,10.01
2022-09-12T06:46:52.695Z,10.07
2022-09-12T06:49:19.260Z,10.17
2022-09-12T06:51:45.960Z,10.24
2022-09-12T06:54:14.625Z,10.30
2022-09-12T06:56:41.626Z,10.30
2022-09-12T06:59:08.603Z,10.38
2022-09-12T07:01:35.203Z,10.43
2022-09-12T07:04:04.341Z,10.47
2022-09-12T07:06:36.797Z,10.57
2022-09-12T07:09:05.865Z,10.62
2022-09-12T07:11:37.243Z,10.69
2022-09-12T07:14:05.803Z,10.77
2022-09-12T07:16:32.715Z,10.83
2022-09-12T07:19:01.435Z,10.91
2022-09-12T07:21:28.873Z,10.97
2022-09-12T07:23:57.897Z,11.03
2022-09-12T07:26:27.091Z,11.13
2022-09-12T07:29:07.871Z,11.18
2022-09-12T07:31:39.865Z,11.30
2022-09-12T07:34:06.942Z,11.36
2022-09-12T07:36:34.474Z,11.44
2022-09-12T07:39:01.693Z,11.52
2022-09-12T07:41:30.534Z,11.58
2022-09-12T07:43:59.758Z,11.69
2022-09-12T07:46:29.631Z,11.76
2022-09-12T07:48:58.238Z,11.91
2022-09-12T07:51:26.851Z,12.09
2022-09-12T07:53:53.528Z,12.29
2022-09-12T07:56:24.064Z,12.50
2022-09-12T07:58:52.762Z,12.70
2022-09-12T08:01:21.287Z,12.93
2022-09-12T08:03:49.855Z,13.16
2022-09-12T08:06:20.428Z,13.59
2022-09-12T08:08:48.883Z,14.21
2022-09-12T08:11:18.197Z,14.70
2022-09-12T08:13:45.780Z,15.02
2022-09-12T08:16:15.259Z,15.26
2022-09-12T08:18:42.435Z,15.54
2022-09-12T08:21:15.068Z,15.70
2022-09-12T08:23:42.926Z,15.82
2022-09-12T08:26:10.896Z,15.81
2022-09-12T08:28:40.219Z,15.73
2022-09-12T08:31:08.996Z,15.55
2022-09-12T08:35:37.039Z,15.09
2022-09-12T08:38:03.653Z,14.89
2022-09-12T08:40:30.571Z,14.68
2022-09-12T08:43:14.356Z,14.43
2022-09-12T08:46:05.170Z,14.29
2022-09-12T08:48:32.164Z,14.08
2022-09-12T08:51:00.081Z,14.05
2022-09-12T08:53:28.797Z,13.93
2022-09-12T08:56:00.393Z,13.81
2022-09-12T08:58:29.349Z,13.71
2022-09-12T09:01:19.246Z,13.58
2022-09-12T09:04:25.776Z,13.47
2022-09-12T09:07:31.280Z,13.36
2022-09-12T09:10:25.274Z,13.26
2022-09-12T09:13:06.981Z,13.15
2022-09-12T09:15:56.258Z,13.02
2022-09-12T09:18:33.143Z,13.05
2022-09-12T09:21:04.930Z,13.12
2022-09-12T09:23:41.863Z,13.27
2022-09-12T09:26:18.041Z,13.37
2022-09-12T09:28:56.096Z,13.41
2022-09-12T09:31:24.599Z,13.46
2022-09-12T09:33:55.295Z,13.51
2022-09-12T09:36:34.953Z,13.54
2022-09-12T09:39:10.295Z,13.52
2022-09-12T09:41:45.697Z,13.48
2022-09-12T09:44:12.647Z,13.43
2022-09-12T09:46:39.668Z,13.39
2022-09-12T09:49:07.860Z,13.31
2022-09-12T09:51:37.766Z,13.28
2022-09-12T09:54:21.259Z,13.24
2022-09-12T09:56:48.306Z,13.28
2022-09-12T09:59:27.202Z,13.27
2022-09-12T10:01:59.979Z,13.29
2022-09-12T10:04:32.624Z,13.36
2022-09-12T10:07:04.580Z,13.40
2022-09-12T10:09:33.758Z,13.44
2022-09-12T10:12:20.993Z,13.46
2022-09-12T10:14:59.061Z,13.50
2022-09-12T10:17:33.241Z,13.51
2022-09-12T10:20:19.826Z,13.53
2022-09-12T10:22:48.690Z,13.54
2022-09-12T10:25:18.442Z,13.52
2022-09-12T10:27:45.109Z,13.52
2022-09-12T10:30:14.915Z,13.45
2022-09-12T10:32:45.339Z,13.37
2022-09-12T10:36:38.173Z,13.38
2022-09-12T10:39:06.164Z,13.31
2022-09-12T10:41:39.835Z,13.27
2022-09-12T10:44:14.842Z,13.20
2022-09-12T10:46:41.369Z,13.10
2022-09-12T10:49:20.261Z,13.08
2022-09-12T10:51:47.293Z,13.09
2022-09-12T10:54:18.445Z,13.06
2022-09-12T10:57:22.422Z,13.06
2022-09-12T11:00:15.591Z,13.10
2022-09-12T11:02:50.935Z,13.16
2022-09-12T11:05:53.623Z,13.21
2022-09-12T11:08:26.792Z,13.30
2022-09-12T11:10:57.972Z,13.40
2022-09-12T11:13:55.786Z,13.51
2022-09-12T11:16:43.084Z,13.62
2022-09-12T11:19:32.854Z,13.72
2022-09-12T11:22:36.928Z,13.86
2022-09-12T11:25:17.091Z,13.98
2022-09-12T11:27:55.243Z,14.12
2022-09-12T11:30:22.304Z,14.25
2022-09-12T11:33:05.841Z,14.40
2022-09-12T11:35:35.552Z,14.50
2022-09-12T11:38:27.497Z,14.57
2022-09-12T11:40:59.199Z,14.59
2022-09-12T11:43:48.846Z,14.54
2022-09-12T11:46:36.375Z,14.44
2022-09-12T11:49:23.120Z,14.36
2022-09-12T11:52:04.491Z,14.34
2022-09-12T11:54:39.210Z,14.37
2022-09-12T11:57:17.014Z,14.49
2022-09-12T11:59:50.205Z,14.56
2022-09-12T12:02:26.829Z,14.66
2022-09-12T12:04:56.596Z,14.70
2022-09-12T12:07:23.205Z,14.71
2022-09-12T12:09:52.817Z,14.74
2022-09-12T12:12:25.154Z,14.76
2022-09-12T12:14:54.722Z,14.79
2022-09-12T12:17:24.281Z,14.83
2022-09-12T12:20:06.715Z,14.75
2022-09-12T12:22:35.273Z,14.74
2022-09-12T12:25:06.649Z,14.73
2022-09-12T12:27:55.286Z,14.70
2022-09-12T12:30:31.159Z,14.69
2022-09-12T12:33:01.486Z,14.70
2022-09-12T12:37:41.902Z,14.88
2022-09-12T12:40:22.004Z,15.05
2022-09-12T12:42:57.534Z,15.17
2022-09-12T12:45:27.206Z,15.32
2022-09-12T12:47:58.275Z,15.46
2022-09-12T12:50:32.207Z,15.56
2022-09-12T12:53:04.725Z,15.71
2022-09-12T12:55:53.123Z,15.80
2022-09-12T12:58:29.072Z,15.89
2022-09-12T13:01:16.794Z,15.93
2022-09-12T13:03:52.409Z,16.03
2022-09-12T13:06:33.500Z,15.99
2022-09-12T13:09:05.395Z,15.95
2022-09-12T13:11:37.529Z,15.85
2022-09-12T13:14:42.789Z,15.84
2022-09-12T13:17:20.728Z,15.82
2022-09-12T13:19:48.661Z,15.85
2022-09-12T13:22:15.759Z,15.93
2022-09-12T13:24:52.411Z,16.00
2022-09-12T13:27:19.086Z,16.09
2022-09-12T13:29:48.776Z,16.23
2022-09-12T13:32:18.298Z,16.26
2022-09-12T13:35:19.818Z,16.34
2022-09-12T13:38:01.066Z,16.34
2022-09-12T13:40:36.792Z,16.23
2022-09-12T13:43:14.121Z,16.10
2022-09-12T13:45:42.902Z,15.99
2022-09-12T13:48:22.690Z,15.87
2022-09-12T13:51:02.235Z,15.85
2022-09-12T13:53:37.078Z,15.79
2022-09-12T13:56:03.965Z,15.75
2022-09-12T13:58:37.166Z,15.73
2022-09-12T14:01:15.437Z,15.69
2022-09-12T14:04:15.161Z,15.68
2022-09-12T14:06:49.664Z,15.64
2022-09-12T14:09:25.471Z,15.62
2022-09-12T14:11:53.185Z,15.57
2022-09-12T14:14:44.060Z,15.48
2022-09-12T14:17:33.070Z,15.42
2022-09-12T14:20:07.531Z,15.39
2022-09-12T14:22:36.016Z,15.34
2022-09-12T14:25:03.966Z,15.38
2022-09-12T14:27:42.538Z,15.41
2022-09-12T14:30:23.263Z,15.41
2022-09-12T14:33:20.133Z,15.47
2022-09-12T14:38:42.512Z,15.55
2022-09-12T14:41:13.128Z,15.58
2022-09-12T14:43:49.200Z,15.58
2022-09-12T14:46:23.381Z,15.62
2022-09-12T14:49:02.337Z,15.68
2022-09-12T14:51:34.852Z,15.74
2022-09-12T14:54:05.236Z,15.78
2022-09-12T14:56:57.155Z,15.84
2022-09-12T14:59:32.377Z,15.86
2022-09-12T15:02:25.898Z,15.87
2022-09-12T15:05:03.244Z,15.82
2022-09-12T15:08:04.830Z,15.71
2022-09-12T15:10:40.694Z,15.64
2022-09-12T15:13:21.487Z,15.54
2022-09-12T15:15:57.029Z,15.51
2022-09-12T15:18:35.139Z,15.52
2022-09-12T15:21:13.830Z,15.55
2022-09-12T15:23:45.844Z,15.51
2022-09-12T15:26:17.352Z,15.42
2022-09-12T15:28:44.867Z,15.31
2022-09-12T15:31:36.066Z,15.11
2022-09-12T15:34:06.264Z,14.94
2022-09-12T15:36:33.220Z,14.75
2022-09-12T15:39:00.244Z,14.61
2022-09-12T15:41:37.926Z,14.49
2022-09-12T15:44:05.640Z,14.36
2022-09-12T15:46:32.823Z,14.23
2022-09-12T15:48:59.748Z,14.11
2022-09-12T15:51:33.332Z,14.10
2022-09-12T15:54:00.514Z,14.05
2022-09-12T15:56:27.541Z,14.05
2022-09-12T15:58:59.120Z,14.04
2022-09-12T16:01:28.327Z,14.05
2022-09-12T16:03:58.455Z,14.04
2022-09-12T16:06:25.502Z,14.05
2022-09-12T16:08:52.286Z,13.99
2022-09-12T16:11:27.985Z,13.98
2022-09-12T16:13:57.045Z,13.96
2022-09-12T16:16:24.371Z,13.87
2022-09-12T16:18:51.089Z,13.81
2022-09-12T16:21:21.695Z,13.77
2022-09-12T16:23:48.976Z,13.67
2022-09-12T16:26:17.138Z,13.64
2022-09-12T16:28:44.171Z,13.54
2022-09-12T16:31:13.939Z,13.43
2022-09-12T16:33:41.157Z,13.32
2022-09-12T16:39:38.252Z,13.04
2022-09-12T16:42:04.974Z,12.98
2022-09-12T16:44:31.556Z,12.86
2022-09-12T16:46:58.189Z,12.76
2022-09-12T16:49:24.846Z,12.69
2022-09-12T16:51:51.624Z,12.58
2022-09-12T16:54:18.538Z,12.41
2022-09-12T16:56:45.335Z,12.29
2022-09-12T16:59:14.340Z,12.14
2022-09-12T17:01:41.618Z,12.01
2022-09-12T17:04:10.670Z,11.87
2022-09-12T17:06:37.568Z,11.76
2022-09-12T17:09:05.104Z,11.62
2022-09-12T17:11:34.994Z,11.51
2022-09-12T17:14:05.911Z,11.43
2022-09-12T17:16:35.771Z,11.32
2022-09-12T17:19:02.797Z,11.27
2022-09-12T17:21:29.670Z,11.19
2022-09-12T17:23:56.702Z,11.16
2022-09-12T17:26:23.389Z,11.08
2022-09-12T17:28:50.303Z,10.98
2022-09-12T17:31:17.413Z,10.99
2022-09-12T17:33:44.690Z,10.89
2022-09-12T17:36:17.054Z,10.90
2022-09-12T17:38:45.854Z,10.88
2022-09-12T17:41:21.663Z,10.80
2022-09-12T17:43:51.324Z,10.78
2022-09-12T17:46:22.582Z,10.69
2022-09-12T17:49:00.468Z,10.66
2022-09-12T17:51:30.845Z,10.56
2022-09-12T17:54:06.300Z,10.57
2022-09-12T17:56:34.979Z,10.51
2022-09-12T17:59:01.942Z,10.44
2022-09-12T18:01:48.652Z,10.38
2022-09-12T18:04:16.146Z,10.32
2022-09-12T18:06:48.287Z,10.25
2022-09-12T18:09:20.400Z,10.20
2022-09-12T18:11:48.645Z,10.23
2022-09-12T18:14:19.106Z,10.19
2022-09-12T18:16:46.671Z,10.19
2022-09-12T18:19:14.187Z,10.24
2022-09-12T18:21:40.928Z,10.24
2022-09-12T18:24:09.162Z,10.26
2022-09-12T18:26:35.909Z,10.29
2022-09-12T18:29:05.777Z,10.34
2022-09-12T18:31:32.912Z,10.37
2022-09-12T18:34:02.789Z,10.42
2022-09-12T18:36:30.716Z,10.42
2022-09-12T18:40:35.167Z,10.46
2022-09-12T18:43:01.857Z,10.47
2022-09-12T18:45:28.625Z,10.46
2022-09-12T18:47:55.814Z,10.46
2022-09-12T18:50:25.500Z,10.45
2022-09-12T18:52:56.624Z,10.45
2022-09-12T18:55:25.800Z,10.45
2022-09-12T18:57:52.514Z,10.43
2022-09-12T19:00:19.327Z,10.46
2022-09-12T19:02:46.067Z,10.50
2022-09-12T19:05:13.013Z,10.50
2022-09-12T19:07:39.668Z,10.51
2022-09-12T19:10:06.661Z,10.49
2022-09-12T19:12:33.708Z,10.44
2022-09-12T19:15:00.380Z,10.42
2022-09-12T19:17:27.118Z,10.41
2022-09-12T19:19:53.873Z,10.37
2022-09-12T19:22:20.535Z,10.36
2022-09-12T19:24:47.182Z,10.35
2022-09-12T19:27:13.827Z,10.37
2022-09-12T19:29:40.488Z,10.38
2022-09-12T19:32:07.763Z,10.42
2022-09-12T19:34:34.402Z,10.45
2022-09-12T19:37:01.020Z,10.48
2022-09-12T19:39:27.649Z,10.53
2022-09-12T19:41:54.531Z,10.57
2022-09-12T19:44:21.268Z,10.61
2022-09-12T19:46:48.106Z,10.63
2022-09-12T19:49:14.814Z,10.62
2022-09-12T19:51:41.828Z,10.68
2022-09-12T19:54:08.502Z,10.65
2022-09-12T19:56:35.098Z,10.68
2022-09-12T19:59:01.640Z,10.71
2022-09-12T20:01:28.889Z,10.71
2022-09-12T20:03:56.858Z,10.72
2022-09-12T20:06:23.617Z,10.76
2022-09-12T20:08:50.098Z,10.78
2022-09-12T20:11:21.948Z,10.81
2022-09-12T20:13:48.615Z,10.81
2022-09-12T20:16:22.640Z,10.84
2022-09-12T20:18:54.775Z,10.87
2022-09-12T20:21:25.479Z,10.88
2022-09-12T20:23:52.268Z,10.90
2022-09-12T20:26:20.388Z,10.94
2022-09-12T20:28:47.155Z,10.93
2022-09-12T20:31:15.992Z,10.95
2022-09-12T20:33:43.225Z,10.95
2022-09-12T20:36:13.947Z,10.99
2022-09-12T20:41:36.373Z,10.95
2022-09-12T20:44:03.116Z,10.98
2022-09-12T20:46:29.861Z,10.96
2022-09-12T20:48:56.613Z,10.92
2022-09-12T20:51:26.659Z,10.87
2022-09-12T20:53:58.486Z,10.82
2022-09-12T20:56:27.163Z,10.75
2022-09-12T20:58:54.839Z,10.72
2022-09-12T21:01:22.042Z,10.70
2022-09-12T21:03:48.700Z,10.68
2022-09-12T21:06:19.359Z,10.69
2022-09-12T21:08:47.324Z,10.72
2022-09-12T21:11:16.955Z,10.71
2022-09-12T21:13:43.815Z,10.73
2022-09-12T21:16:15.872Z,10.74
2022-09-12T21:18:43.136Z,10.70
2022-09-12T21:21:12.051Z,10.70
2022-09-12T21:23:41.383Z,10.69
2022-09-12T21:26:08.587Z,10.69
2022-09-12T21:28:38.214Z,10.68
2022-09-12T21:31:05.334Z,10.65
2022-09-12T21:33:32.114Z,10.65
2022-09-12T21:36:03.737Z,10.58
2022-09-12T21:38:31.061Z,10.57
2022-09-12T21:41:12.946Z,10.57
2022-09-12T21:43:40.234Z,10.57
2022-09-12T21:46:07.781Z,10.56
2022-09-12T21:48:35.105Z,10.56
2022-09-12T21:51:05.369Z,10.55
2022-09-12T21:53:32.278Z,10.56
2022-09-12T21:56:04.780Z,10.60
2022-09-12T21:58:31.530Z,10.64
2022-09-12T22:00:59.875Z,10.65
2022-09-12T22:03:28.648Z,10.69
2022-09-12T22:05:59.986Z,10.67
2022-09-12T22:08:27.423Z,10.68
2022-09-12T22:10:58.156Z,10.71
2022-09-12T22:13:24.647Z,10.75
2022-09-12T22:15:53.513Z,10.74
2022-09-12T22:18:20.251Z,10.75
2022-09-12T22:20:46.803Z,10.72
2022-09-12T22:23:51.807Z,10.76
2022-09-12T22:26:18.349Z,10.77
2022-09-12T22:28:45.233Z,10.77
2022-09-12T22:31:12.952Z,10.78
2022-09-12T22:33:39.704Z,10.77
2022-09-12T22:36:06.925Z,10.78
2022-09-12T22:38:33.591Z,10.79
2022-09-12T22:42:46.310Z,10.81
2022-09-12T22:45:13.013Z,10.82
2022-09-12T22:47:39.662Z,10.82
2022-09-12T22:50:06.857Z,10.81
2022-09-12T22:52:33.542Z,10.73
2022-09-12T22:55:00.298Z,10.71
2022-09-12T22:57:27.130Z,10.71
2022-09-12T22:59:53.943Z,10.69
2022-09-12T23:02:24.187Z,10.66
2022-09-12T23:04:54.263Z,10.60
2022-09-12T23:07:20.929Z,10.62
2022-09-12T23:09:48.373Z,10.57
2022-09-12T23:12:15.584Z,10.53
2022-09-12T23:14:45.615Z,10.49
2022-09-12T23:17:12.392Z,10.40
2022-09-12T23:19:42.414Z,10.39
2022-09-12T23:22:09.286Z,10.35
2022-09-12T23:24:39.243Z,10.19
2022-09-12T23:27:06.181Z,10.16
2022-09-12T23:29:35.697Z,10.02
2022-09-12T23:32:04.283Z,9.95
2022-09-12T23:34:31.305Z,9.79
2022-09-12T23:36:58.000Z,9.73
2022-09-12T23:39:24.948Z,9.64
2022-09-12T23:41:52.281Z,9.51
2022-09-12T23:44:18.964Z,9.45
2022-09-12T23:46:45.775Z,9.37
2022-09-12T23:49:14.525Z,9.30
2022-09-12T23:51:41.200Z,9.24
2022-09-12T23:54:08.277Z,9.18
2022-09-12T23:56:34.926Z,9.10
2022-09-12T23:59:01.704Z,9.02
